sensor_id;sensor_type;location;lat;lon;timestamp;P1;durP1;ratioP1;P2;durP2;ratioP2
66597;SDS011;57424;53.128;6.406;2024-02-14T00:00:00;4.85;;;3.33;;
66597;SDS011;57424;53.128;6.406;2024-02-14T00:02:26;6.03;;;3.22;;
66597;SDS011;57424;53.128;6.406;2024-02-14T00:04:52;3.83;;;2.80;;
66597;SDS011;57424;53.128;6.406;2024-02-14T00:07:18;5.82;;;3.35;;
66597;SDS011;57424;53.128;6.406;2024-02-14T00:09:44;6.88;;;3.90;;
66597;SDS011;57424;53.128;6.406;2024-02-14T00:12:10;5.22;;;3.30;;
66597;SDS011;57424;53.128;6.406;2024-02-14T00:14:36;4.18;;;3.03;;
66597;SDS011;57424;53.128;6.406;2024-02-14T00:17:02;7.85;;;3.45;;
66597;SDS011;57424;53.128;6.406;2024-02-14T00:19:28;5.30;;;2.70;;
66597;SDS011;57424;53.128;6.406;2024-02-14T00:21:54;4.00;;;3.00;;
66597;SDS011;57424;53.128;6.406;2024-02-14T00:24:20;4.03;;;2.88;;
66597;SDS011;57424;53.128;6.406;2024-02-14T00:26:45;4.43;;;3.20;;
66597;SDS011;57424;53.128;6.406;2024-02-14T00:29:11;5.10;;;3.22;;
66597;SDS011;57424;53.128;6.406;2024-02-14T00:31:37;4.68;;;3.20;;
66597;SDS011;57424;53.128;6.406;2024-02-14T00:34:02;3.63;;;3.17;;
66597;SDS011;57424;53.128;6.406;2024-02-14T00:36:28;4.65;;;3.15;;
66597;SDS011;57424;53.128;6.406;2024-02-14T00:38:53;4.85;;;3.03;;
66597;SDS011;57424;53.128;6.406;2024-02-14T00:41:19;5.22;;;3.05;;
66597;SDS011;57424;53.128;6.406;2024-02-14T00:43:45;4.78;;;3.00;;
66597;SDS011;57424;53.128;6.406;2024-02-14T00:46:15;4.85;;;3.30;;
66597;SDS011;57424;53.128;6.406;2024-02-14T00:48:42;4.82;;;3.60;;
66597;SDS011;57424;53.128;6.406;2024-02-14T00:51:09;4.57;;;3.05;;
66597;SDS011;57424;53.128;6.406;2024-02-14T00:53:35;4.78;;;2.92;;
66597;SDS011;57424;53.128;6.406;2024-02-14T00:56:00;4.82;;;3.15;;
66597;SDS011;57424;53.128;6.406;2024-02-14T00:58:26;6.85;;;3.15;;
66597;SDS011;57424;53.128;6.406;2024-02-14T01:00:51;3.22;;;2.78;;
66597;SDS011;57424;53.128;6.406;2024-02-14T01:03:17;3.65;;;3.00;;
66597;SDS011;57424;53.128;6.406;2024-02-14T01:05:42;4.57;;;3.00;;
66597;SDS011;57424;53.128;6.406;2024-02-14T01:08:08;5.30;;;3.53;;
66597;SDS011;57424;53.128;6.406;2024-02-14T01:10:34;4.38;;;3.08;;
66597;SDS011;57424;53.128;6.406;2024-02-14T01:13:00;4.07;;;3.00;;
66597;SDS011;57424;53.128;6.406;2024-02-14T01:15:26;4.60;;;2.92;;
66597;SDS011;57424;53.128;6.406;2024-02-14T01:17:51;4.50;;;3.05;;
66597;SDS011;57424;53.128;6.406;2024-02-14T01:20:17;4.20;;;2.90;;
66597;SDS011;57424;53.128;6.406;2024-02-14T01:22:43;4.03;;;2.70;;
66597;SDS011;57424;53.128;6.406;2024-02-14T01:25:11;4.72;;;2.65;;
66597;SDS011;57424;53.128;6.406;2024-02-14T01:27:37;3.40;;;2.53;;
66597;SDS011;57424;53.128;6.406;2024-02-14T01:30:02;2.90;;;2.42;;
66597;SDS011;57424;53.128;6.406;2024-02-14T01:32:30;2.92;;;2.47;;
66597;SDS011;57424;53.128;6.406;2024-02-14T01:34:56;2.90;;;2.50;;
66597;SDS011;57424;53.128;6.406;2024-02-14T01:37:22;3.13;;;2.47;;
66597;SDS011;57424;53.128;6.406;2024-02-14T01:39:47;4.93;;;2.40;;
66597;SDS011;57424;53.128;6.406;2024-02-14T01:42:13;3.60;;;2.20;;
66597;SDS011;57424;53.128;6.406;2024-02-14T01:44:39;3.05;;;2.30;;
66597;SDS011;57424;53.128;6.406;2024-02-14T01:47:05;2.80;;;2.30;;
66597;SDS011;57424;53.128;6.406;2024-02-14T01:49:34;3.22;;;2.45;;
66597;SDS011;57424;53.128;6.406;2024-02-14T01:52:01;2.75;;;2.40;;
66597;SDS011;57424;53.128;6.406;2024-02-14T01:54:28;2.90;;;2.60;;
66597;SDS011;57424;53.128;6.406;2024-02-14T01:56:57;4.38;;;2.40;;
66597;SDS011;57424;53.128;6.406;2024-02-14T01:59:23;2.80;;;2.10;;
66597;SDS011;57424;53.128;6.406;2024-02-14T02:01:49;2.33;;;2.13;;
66597;SDS011;57424;53.128;6.406;2024-02-14T02:04:17;2.90;;;1.92;;
66597;SDS011;57424;53.128;6.406;2024-02-14T02:06:43;4.78;;;2.10;;
66597;SDS011;57424;53.128;6.406;2024-02-14T02:09:09;2.75;;;2.20;;
66597;SDS011;57424;53.128;6.406;2024-02-14T02:11:48;2.35;;;2.15;;
66597;SDS011;57424;53.128;6.406;2024-02-14T02:14:14;3.35;;;2.50;;
66597;SDS011;57424;53.128;6.406;2024-02-14T02:16:41;2.35;;;2.10;;
66597;SDS011;57424;53.128;6.406;2024-02-14T02:19:07;3.40;;;2.15;;
66597;SDS011;57424;53.128;6.406;2024-02-14T02:21:37;3.03;;;2.20;;
66597;SDS011;57424;53.128;6.406;2024-02-14T02:24:03;2.83;;;2.05;;
66597;SDS011;57424;53.128;6.406;2024-02-14T02:26:32;2.00;;;1.90;;
66597;SDS011;57424;53.128;6.406;2024-02-14T02:28:57;4.60;;;2.42;;
66597;SDS011;57424;53.128;6.406;2024-02-14T02:31:24;2.25;;;1.70;;
66597;SDS011;57424;53.128;6.406;2024-02-14T02:33:51;2.72;;;2.10;;
66597;SDS011;57424;53.128;6.406;2024-02-14T02:36:17;2.00;;;1.80;;
66597;SDS011;57424;53.128;6.406;2024-02-14T02:38:42;2.50;;;2.05;;
66597;SDS011;57424;53.128;6.406;2024-02-14T02:41:09;3.03;;;2.10;;
66597;SDS011;57424;53.128;6.406;2024-02-14T02:43:34;2.35;;;1.88;;
66597;SDS011;57424;53.128;6.406;2024-02-14T02:46:00;1.77;;;1.63;;
66597;SDS011;57424;53.128;6.406;2024-02-14T02:48:26;2.20;;;2.00;;
66597;SDS011;57424;53.128;6.406;2024-02-14T02:50:52;2.10;;;1.88;;
66597;SDS011;57424;53.128;6.406;2024-02-14T02:53:18;2.22;;;1.90;;
66597;SDS011;57424;53.128;6.406;2024-02-14T02:55:44;2.05;;;1.80;;
66597;SDS011;57424;53.128;6.406;2024-02-14T02:58:10;2.58;;;1.80;;
66597;SDS011;57424;53.128;6.406;2024-02-14T03:00:36;3.25;;;1.98;;
66597;SDS011;57424;53.128;6.406;2024-02-14T03:03:02;2.30;;;2.00;;
66597;SDS011;57424;53.128;6.406;2024-02-14T03:05:30;2.53;;;2.00;;
66597;SDS011;57424;53.128;6.406;2024-02-14T03:07:58;2.95;;;1.90;;
66597;SDS011;57424;53.128;6.406;2024-02-14T03:10:25;2.40;;;1.60;;
66597;SDS011;57424;53.128;6.406;2024-02-14T03:12:51;3.35;;;2.15;;
66597;SDS011;57424;53.128;6.406;2024-02-14T03:15:17;2.17;;;1.98;;
66597;SDS011;57424;53.128;6.406;2024-02-14T03:17:43;1.92;;;1.67;;
66597;SDS011;57424;53.128;6.406;2024-02-14T03:20:10;2.22;;;1.98;;
66597;SDS011;57424;53.128;6.406;2024-02-14T03:22:39;2.22;;;2.00;;
66597;SDS011;57424;53.128;6.406;2024-02-14T03:25:11;2.67;;;2.10;;
66597;SDS011;57424;53.128;6.406;2024-02-14T03:27:39;2.13;;;1.92;;
66597;SDS011;57424;53.128;6.406;2024-02-14T03:30:05;1.92;;;1.73;;
66597;SDS011;57424;53.128;6.406;2024-02-14T03:32:31;2.65;;;2.03;;
66597;SDS011;57424;53.128;6.406;2024-02-14T03:34:57;2.33;;;2.13;;
66597;SDS011;57424;53.128;6.406;2024-02-14T03:37:23;2.67;;;2.00;;
66597;SDS011;57424;53.128;6.406;2024-02-14T03:39:49;1.70;;;1.60;;
66597;SDS011;57424;53.128;6.406;2024-02-14T03:42:15;2.13;;;1.92;;
66597;SDS011;57424;53.128;6.406;2024-02-14T03:44:41;1.92;;;1.75;;
66597;SDS011;57424;53.128;6.406;2024-02-14T03:47:08;1.90;;;1.73;;
66597;SDS011;57424;53.128;6.406;2024-02-14T03:49:37;2.65;;;1.90;;
66597;SDS011;57424;53.128;6.406;2024-02-14T03:54:33;1.98;;;1.70;;
66597;SDS011;57424;53.128;6.406;2024-02-14T03:57:02;2.17;;;1.98;;
66597;SDS011;57424;53.128;6.406;2024-02-14T03:59:30;2.03;;;1.80;;
66597;SDS011;57424;53.128;6.406;2024-02-14T04:01:56;2.20;;;2.00;;
66597;SDS011;57424;53.128;6.406;2024-02-14T04:04:23;2.17;;;1.98;;
66597;SDS011;57424;53.128;6.406;2024-02-14T04:06:48;1.73;;;1.63;;
66597;SDS011;57424;53.128;6.406;2024-02-14T04:09:14;2.10;;;1.90;;
66597;SDS011;57424;53.128;6.406;2024-02-14T04:11:40;2.10;;;1.80;;
66597;SDS011;57424;53.128;6.406;2024-02-14T04:14:05;2.13;;;1.90;;
66597;SDS011;57424;53.128;6.406;2024-02-14T04:16:32;2.08;;;1.70;;
66597;SDS011;57424;53.128;6.406;2024-02-14T04:18:57;2.08;;;1.88;;
66597;SDS011;57424;53.128;6.406;2024-02-14T04:21:23;2.47;;;2.28;;
66597;SDS011;57424;53.128;6.406;2024-02-14T04:23:49;2.22;;;2.03;;
66597;SDS011;57424;53.128;6.406;2024-02-14T04:26:18;2.28;;;2.08;;
66597;SDS011;57424;53.128;6.406;2024-02-14T04:28:45;1.85;;;1.65;;
66597;SDS011;57424;53.128;6.406;2024-02-14T04:31:11;2.70;;;2.33;;
66597;SDS011;57424;53.128;6.406;2024-02-14T04:33:36;3.08;;;2.40;;
66597;SDS011;57424;53.128;6.406;2024-02-14T04:36:02;2.08;;;1.67;;
66597;SDS011;57424;53.128;6.406;2024-02-14T04:38:28;2.30;;;2.05;;
66597;SDS011;57424;53.128;6.406;2024-02-14T04:40:54;2.42;;;2.10;;
66597;SDS011;57424;53.128;6.406;2024-02-14T04:43:21;3.65;;;2.33;;
66597;SDS011;57424;53.128;6.406;2024-02-14T04:45:47;2.10;;;1.90;;
66597;SDS011;57424;53.128;6.406;2024-02-14T04:48:12;2.10;;;1.88;;
66597;SDS011;57424;53.128;6.406;2024-02-14T04:50:38;2.03;;;1.83;;
66597;SDS011;57424;53.128;6.406;2024-02-14T04:53:07;2.13;;;1.92;;
66597;SDS011;57424;53.128;6.406;2024-02-14T04:55:32;2.17;;;1.98;;
66597;SDS011;57424;53.128;6.406;2024-02-14T04:57:58;2.35;;;2.15;;
66597;SDS011;57424;53.128;6.406;2024-02-14T05:00:24;2.72;;;2.40;;
66597;SDS011;57424;53.128;6.406;2024-02-14T05:02:50;2.65;;;2.10;;
66597;SDS011;57424;53.128;6.406;2024-02-14T05:05:16;2.30;;;2.00;;
66597;SDS011;57424;53.128;6.406;2024-02-14T05:07:41;1.88;;;1.73;;
66597;SDS011;57424;53.128;6.406;2024-02-14T05:10:07;2.38;;;2.17;;
66597;SDS011;57424;53.128;6.406;2024-02-14T05:12:33;2.03;;;1.83;;
66597;SDS011;57424;53.128;6.406;2024-02-14T05:15:02;2.72;;;2.25;;
66597;SDS011;57424;53.128;6.406;2024-02-14T05:17:29;2.00;;;1.77;;
66597;SDS011;57424;53.128;6.406;2024-02-14T05:19:55;2.42;;;1.95;;
66597;SDS011;57424;53.128;6.406;2024-02-14T05:22:21;2.17;;;1.98;;
66597;SDS011;57424;53.128;6.406;2024-02-14T05:24:47;2.03;;;1.80;;
66597;SDS011;57424;53.128;6.406;2024-02-14T05:27:13;2.33;;;1.77;;
66597;SDS011;57424;53.128;6.406;2024-02-14T05:29:39;2.15;;;1.95;;
66597;SDS011;57424;53.128;6.406;2024-02-14T05:32:04;2.13;;;1.92;;
66597;SDS011;57424;53.128;6.406;2024-02-14T05:34:30;2.10;;;1.90;;
66597;SDS011;57424;53.128;6.406;2024-02-14T05:36:56;1.95;;;1.65;;
66597;SDS011;57424;53.128;6.406;2024-02-14T05:39:21;1.63;;;1.52;;
66597;SDS011;57424;53.128;6.406;2024-02-14T05:41:47;1.90;;;1.70;;
66597;SDS011;57424;53.128;6.406;2024-02-14T05:44:14;2.65;;;1.67;;
66597;SDS011;57424;53.128;6.406;2024-02-14T05:46:39;1.75;;;1.65;;
66597;SDS011;57424;53.128;6.406;2024-02-14T05:49:06;2.25;;;1.88;;
66597;SDS011;57424;53.128;6.406;2024-02-14T05:51:32;1.90;;;1.70;;
66597;SDS011;57424;53.128;6.406;2024-02-14T05:53:57;1.90;;;1.60;;
66597;SDS011;57424;53.128;6.406;2024-02-14T05:56:23;2.60;;;2.03;;
66597;SDS011;57424;53.128;6.406;2024-02-14T05:58:48;2.50;;;1.40;;
66597;SDS011;57424;53.128;6.406;2024-02-14T06:01:14;1.63;;;1.52;;
66597;SDS011;57424;53.128;6.406;2024-02-14T06:03:43;2.45;;;1.70;;
66597;SDS011;57424;53.128;6.406;2024-02-14T06:06:08;2.13;;;1.70;;
66597;SDS011;57424;53.128;6.406;2024-02-14T06:08:34;2.58;;;1.80;;
66597;SDS011;57424;53.128;6.406;2024-02-14T06:10:59;2.35;;;1.90;;
66597;SDS011;57424;53.128;6.406;2024-02-14T06:13:25;4.90;;;2.42;;
66597;SDS011;57424;53.128;6.406;2024-02-14T06:15:50;2.95;;;1.83;;
66597;SDS011;57424;53.128;6.406;2024-02-14T06:18:16;3.40;;;1.90;;
66597;SDS011;57424;53.128;6.406;2024-02-14T06:20:42;8.05;;;2.42;;
66597;SDS011;57424;53.128;6.406;2024-02-14T06:23:07;6.18;;;2.30;;
66597;SDS011;57424;53.128;6.406;2024-02-14T06:25:33;7.28;;;2.80;;
66597;SDS011;57424;53.128;6.406;2024-02-14T06:27:58;4.60;;;2.33;;
66597;SDS011;57424;53.128;6.406;2024-02-14T06:30:24;4.22;;;2.00;;
66597;SDS011;57424;53.128;6.406;2024-02-14T06:32:50;6.03;;;2.42;;
66597;SDS011;57424;53.128;6.406;2024-02-14T06:35:15;5.05;;;2.47;;
66597;SDS011;57424;53.128;6.406;2024-02-14T06:37:43;5.88;;;2.17;;
66597;SDS011;57424;53.128;6.406;2024-02-14T06:40:10;6.35;;;2.47;;
66597;SDS011;57424;53.128;6.406;2024-02-14T06:42:36;6.70;;;2.70;;
66597;SDS011;57424;53.128;6.406;2024-02-14T06:45:02;3.50;;;2.10;;
66597;SDS011;57424;53.128;6.406;2024-02-14T06:47:28;2.97;;;1.77;;
66597;SDS011;57424;53.128;6.406;2024-02-14T06:49:55;7.07;;;2.60;;
66597;SDS011;57424;53.128;6.406;2024-02-14T06:52:21;11.43;;;2.92;;
66597;SDS011;57424;53.128;6.406;2024-02-14T06:54:46;4.32;;;2.30;;
66597;SDS011;57424;53.128;6.406;2024-02-14T06:57:13;3.53;;;2.70;;
66597;SDS011;57424;53.128;6.406;2024-02-14T06:59:39;6.72;;;2.50;;
66597;SDS011;57424;53.128;6.406;2024-02-14T07:02:05;10.50;;;3.08;;
66597;SDS011;57424;53.128;6.406;2024-02-14T07:04:31;6.20;;;2.53;;
66597;SDS011;57424;53.128;6.406;2024-02-14T07:06:57;8.48;;;2.53;;
66597;SDS011;57424;53.128;6.406;2024-02-14T07:09:23;11.65;;;3.40;;
66597;SDS011;57424;53.128;6.406;2024-02-14T07:11:50;7.93;;;2.95;;
66597;SDS011;57424;53.128;6.406;2024-02-14T07:14:16;8.77;;;2.75;;
66597;SDS011;57424;53.128;6.406;2024-02-14T07:16:41;9.15;;;3.10;;
66597;SDS011;57424;53.128;6.406;2024-02-14T07:19:07;8.10;;;2.90;;
66597;SDS011;57424;53.128;6.406;2024-02-14T07:21:32;7.68;;;2.95;;
66597;SDS011;57424;53.128;6.406;2024-02-14T07:23:58;10.50;;;2.78;;
66597;SDS011;57424;53.128;6.406;2024-02-14T07:26:23;9.75;;;2.78;;
66597;SDS011;57424;53.128;6.406;2024-02-14T07:28:49;8.45;;;2.80;;
66597;SDS011;57424;53.128;6.406;2024-02-14T07:31:15;8.98;;;2.72;;
66597;SDS011;57424;53.128;6.406;2024-02-14T07:33:40;6.50;;;2.75;;
66597;SDS011;57424;53.128;6.406;2024-02-14T07:36:06;12.35;;;3.85;;
66597;SDS011;57424;53.128;6.406;2024-02-14T07:38:31;9.43;;;3.00;;
66597;SDS011;57424;53.128;6.406;2024-02-14T07:40:57;8.23;;;2.70;;
66597;SDS011;57424;53.128;6.406;2024-02-14T07:43:23;5.13;;;2.40;;
66597;SDS011;57424;53.128;6.406;2024-02-14T07:45:48;9.95;;;3.35;;
66597;SDS011;57424;53.128;6.406;2024-02-14T07:48:14;15.70;;;3.72;;
66597;SDS011;57424;53.128;6.406;2024-02-14T07:50:39;8.73;;;3.03;;
66597;SDS011;57424;53.128;6.406;2024-02-14T07:53:05;9.88;;;3.83;;
66597;SDS011;57424;53.128;6.406;2024-02-14T07:55:31;15.07;;;3.70;;
66597;SDS011;57424;53.128;6.406;2024-02-14T07:57:57;9.70;;;2.65;;
66597;SDS011;57424;53.128;6.406;2024-02-14T08:00:24;11.88;;;3.08;;
66597;SDS011;57424;53.128;6.406;2024-02-14T08:02:50;9.55;;;3.28;;
66597;SDS011;57424;53.128;6.406;2024-02-14T08:05:15;9.63;;;3.22;;
66597;SDS011;57424;53.128;6.406;2024-02-14T08:07:41;11.15;;;3.00;;
66597;SDS011;57424;53.128;6.406;2024-02-14T08:10:07;7.43;;;2.80;;
66597;SDS011;57424;53.128;6.406;2024-02-14T08:12:33;12.43;;;3.30;;
66597;SDS011;57424;53.128;6.406;2024-02-14T08:14:59;16.02;;;3.92;;
66597;SDS011;57424;53.128;6.406;2024-02-14T08:17:29;12.57;;;3.58;;
66597;SDS011;57424;53.128;6.406;2024-02-14T08:19:55;9.15;;;3.28;;
66597;SDS011;57424;53.128;6.406;2024-02-14T08:22:20;11.55;;;3.28;;
66597;SDS011;57424;53.128;6.406;2024-02-14T08:24:46;10.60;;;3.45;;
66597;SDS011;57424;53.128;6.406;2024-02-14T08:27:11;11.80;;;3.95;;
66597;SDS011;57424;53.128;6.406;2024-02-14T08:29:37;15.00;;;3.78;;
66597;SDS011;57424;53.128;6.406;2024-02-14T08:32:03;9.55;;;3.42;;
66597;SDS011;57424;53.128;6.406;2024-02-14T08:34:32;10.82;;;3.40;;
66597;SDS011;57424;53.128;6.406;2024-02-14T08:36:57;9.50;;;3.13;;
66597;SDS011;57424;53.128;6.406;2024-02-14T08:39:23;8.07;;;3.10;;
66597;SDS011;57424;53.128;6.406;2024-02-14T08:41:48;9.63;;;3.20;;
66597;SDS011;57424;53.128;6.406;2024-02-14T08:44:15;7.90;;;3.15;;
66597;SDS011;57424;53.128;6.406;2024-02-14T08:46:40;10.43;;;3.40;;
66597;SDS011;57424;53.128;6.406;2024-02-14T08:49:07;14.77;;;4.43;;
66597;SDS011;57424;53.128;6.406;2024-02-14T08:51:36;8.75;;;3.50;;
66597;SDS011;57424;53.128;6.406;2024-02-14T08:54:03;10.57;;;3.78;;
66597;SDS011;57424;53.128;6.406;2024-02-14T08:56:32;10.55;;;3.65;;
66597;SDS011;57424;53.128;6.406;2024-02-14T08:59:02;10.90;;;3.85;;
66597;SDS011;57424;53.128;6.406;2024-02-14T09:01:29;6.95;;;3.45;;
66597;SDS011;57424;53.128;6.406;2024-02-14T09:03:55;7.32;;;3.70;;
66597;SDS011;57424;53.128;6.406;2024-02-14T09:06:21;8.95;;;3.47;;
66597;SDS011;57424;53.128;6.406;2024-02-14T09:08:47;8.07;;;3.55;;
66597;SDS011;57424;53.128;6.406;2024-02-14T09:11:13;12.13;;;4.00;;
66597;SDS011;57424;53.128;6.406;2024-02-14T09:13:39;10.82;;;3.70;;
66597;SDS011;57424;53.128;6.406;2024-02-14T09:16:08;9.75;;;3.83;;
66597;SDS011;57424;53.128;6.406;2024-02-14T09:18:34;9.73;;;3.80;;
66597;SDS011;57424;53.128;6.406;2024-02-14T09:21:00;6.38;;;3.38;;
66597;SDS011;57424;53.128;6.406;2024-02-14T09:23:28;9.30;;;4.05;;
66597;SDS011;57424;53.128;6.406;2024-02-14T09:25:54;6.03;;;3.33;;
66597;SDS011;57424;53.128;6.406;2024-02-14T09:28:22;9.30;;;3.87;;
66597;SDS011;57424;53.128;6.406;2024-02-14T09:30:47;9.55;;;3.67;;
66597;SDS011;57424;53.128;6.406;2024-02-14T09:33:13;11.75;;;3.70;;
66597;SDS011;57424;53.128;6.406;2024-02-14T09:35:39;8.95;;;3.78;;
66597;SDS011;57424;53.128;6.406;2024-02-14T09:38:09;7.68;;;3.60;;
66597;SDS011;57424;53.128;6.406;2024-02-14T09:40:37;13.27;;;3.90;;
66597;SDS011;57424;53.128;6.406;2024-02-14T09:43:05;10.13;;;3.83;;
66597;SDS011;57424;53.128;6.406;2024-02-14T09:45:42;9.33;;;3.73;;
66597;SDS011;57424;53.128;6.406;2024-02-14T09:48:09;12.03;;;3.77;;
66597;SDS011;57424;53.128;6.406;2024-02-14T09:50:37;9.50;;;3.53;;
66597;SDS011;57424;53.128;6.406;2024-02-14T09:53:04;8.20;;;3.92;;
66597;SDS011;57424;53.128;6.406;2024-02-14T09:55:30;7.07;;;3.65;;
66597;SDS011;57424;53.128;6.406;2024-02-14T09:57:55;6.93;;;3.60;;
66597;SDS011;57424;53.128;6.406;2024-02-14T10:00:22;8.88;;;4.03;;
66597;SDS011;57424;53.128;6.406;2024-02-14T10:02:52;5.97;;;3.58;;
66597;SDS011;57424;53.128;6.406;2024-02-14T10:05:21;6.45;;;3.20;;
66597;SDS011;57424;53.128;6.406;2024-02-14T10:07:46;10.23;;;3.63;;
66597;SDS011;57424;53.128;6.406;2024-02-14T10:10:12;7.00;;;3.55;;
66597;SDS011;57424;53.128;6.406;2024-02-14T10:12:39;6.78;;;3.50;;
66597;SDS011;57424;53.128;6.406;2024-02-14T10:15:06;8.80;;;3.40;;
66597;SDS011;57424;53.128;6.406;2024-02-14T10:17:33;7.70;;;3.60;;
66597;SDS011;57424;53.128;6.406;2024-02-14T10:19:59;7.68;;;3.53;;
66597;SDS011;57424;53.128;6.406;2024-02-14T10:22:36;5.65;;;3.50;;
66597;SDS011;57424;53.128;6.406;2024-02-14T10:25:05;7.03;;;3.38;;
66597;SDS011;57424;53.128;6.406;2024-02-14T10:27:37;5.47;;;3.00;;
66597;SDS011;57424;53.128;6.406;2024-02-14T10:30:07;5.47;;;3.05;;
66597;SDS011;57424;53.128;6.406;2024-02-14T10:32:36;6.28;;;3.38;;
66597;SDS011;57424;53.128;6.406;2024-02-14T10:35:03;5.13;;;2.88;;
66597;SDS011;57424;53.128;6.406;2024-02-14T10:37:33;4.70;;;2.75;;
66597;SDS011;57424;53.128;6.406;2024-02-14T10:39:59;2.45;;;2.03;;
66597;SDS011;57424;53.128;6.406;2024-02-14T10:44:54;3.85;;;2.28;;
66597;SDS011;57424;53.128;6.406;2024-02-14T10:47:20;5.95;;;2.75;;
66597;SDS011;57424;53.128;6.406;2024-02-14T10:49:49;4.22;;;2.70;;
66597;SDS011;57424;53.128;6.406;2024-02-14T10:52:17;6.00;;;3.00;;
66597;SDS011;57424;53.128;6.406;2024-02-14T10:54:43;4.57;;;3.30;;
66597;SDS011;57424;53.128;6.406;2024-02-14T10:57:17;4.55;;;2.95;;
66597;SDS011;57424;53.128;6.406;2024-02-14T10:59:45;8.75;;;3.60;;
66597;SDS011;57424;53.128;6.406;2024-02-14T11:02:12;6.55;;;3.25;;
66597;SDS011;57424;53.128;6.406;2024-02-14T11:04:38;4.95;;;3.22;;
66597;SDS011;57424;53.128;6.406;2024-02-14T11:07:08;5.93;;;3.25;;
66597;SDS011;57424;53.128;6.406;2024-02-14T11:09:38;7.70;;;3.20;;
66597;SDS011;57424;53.128;6.406;2024-02-14T11:12:08;5.10;;;3.22;;
66597;SDS011;57424;53.128;6.406;2024-02-14T11:14:35;4.72;;;3.03;;
66597;SDS011;57424;53.128;6.406;2024-02-14T11:19:37;4.25;;;2.70;;
66597;SDS011;57424;53.128;6.406;2024-02-14T11:22:18;5.88;;;2.70;;
66597;SDS011;57424;53.128;6.406;2024-02-14T11:24:45;5.90;;;3.08;;
66597;SDS011;57424;53.128;6.406;2024-02-14T11:27:12;4.78;;;2.83;;
66597;SDS011;57424;53.128;6.406;2024-02-14T11:29:50;4.68;;;3.15;;
66597;SDS011;57424;53.128;6.406;2024-02-14T11:32:17;6.35;;;3.40;;
66597;SDS011;57424;53.128;6.406;2024-02-14T11:34:43;4.60;;;3.20;;
66597;SDS011;57424;53.128;6.406;2024-02-14T11:37:19;3.92;;;3.03;;
66597;SDS011;57424;53.128;6.406;2024-02-14T11:39:46;4.72;;;3.10;;
66597;SDS011;57424;53.128;6.406;2024-02-14T11:42:11;4.85;;;2.78;;
66597;SDS011;57424;53.128;6.406;2024-02-14T11:44:39;4.05;;;2.38;;
66597;SDS011;57424;53.128;6.406;2024-02-14T11:47:07;5.55;;;2.58;;
66597;SDS011;57424;53.128;6.406;2024-02-14T11:49:35;7.57;;;3.00;;
66597;SDS011;57424;53.128;6.406;2024-02-14T11:52:01;6.18;;;3.13;;
66597;SDS011;57424;53.128;6.406;2024-02-14T11:54:28;3.60;;;2.80;;
66597;SDS011;57424;53.128;6.406;2024-02-14T11:56:54;2.63;;;2.20;;
66597;SDS011;57424;53.128;6.406;2024-02-14T11:59:20;3.28;;;2.38;;
66597;SDS011;57424;53.128;6.406;2024-02-14T12:01:48;3.30;;;2.42;;
66597;SDS011;57424;53.128;6.406;2024-02-14T12:04:16;3.13;;;2.15;;
66597;SDS011;57424;53.128;6.406;2024-02-14T12:06:43;3.58;;;2.60;;
66597;SDS011;57424;53.128;6.406;2024-02-14T12:09:09;2.95;;;2.65;;
66597;SDS011;57424;53.128;6.406;2024-02-14T12:11:37;3.90;;;2.50;;
66597;SDS011;57424;53.128;6.406;2024-02-14T12:14:06;3.70;;;2.67;;
66597;SDS011;57424;53.128;6.406;2024-02-14T12:16:36;4.10;;;2.67;;
66597;SDS011;57424;53.128;6.406;2024-02-14T12:19:07;4.97;;;2.60;;
66597;SDS011;57424;53.128;6.406;2024-02-14T12:21:37;4.47;;;3.08;;
66597;SDS011;57424;53.128;6.406;2024-02-14T12:24:06;3.92;;;2.67;;
66597;SDS011;57424;53.128;6.406;2024-02-14T12:26:32;3.85;;;2.85;;
66597;SDS011;57424;53.128;6.406;2024-02-14T12:29:00;4.88;;;2.92;;
66597;SDS011;57424;53.128;6.406;2024-02-14T12:31:28;4.80;;;3.13;;
66597;SDS011;57424;53.128;6.406;2024-02-14T12:33:55;3.95;;;2.72;;
66597;SDS011;57424;53.128;6.406;2024-02-14T12:36:27;3.92;;;2.95;;
66597;SDS011;57424;53.128;6.406;2024-02-14T12:39:02;4.43;;;3.10;;
66597;SDS011;57424;53.128;6.406;2024-02-14T12:41:28;3.65;;;2.83;;
66597;SDS011;57424;53.128;6.406;2024-02-14T12:43:57;3.63;;;2.83;;
66597;SDS011;57424;53.128;6.406;2024-02-14T12:46:24;4.70;;;3.05;;
66597;SDS011;57424;53.128;6.406;2024-02-14T12:48:49;5.55;;;2.95;;
66597;SDS011;57424;53.128;6.406;2024-02-14T12:51:15;4.18;;;2.90;;
66597;SDS011;57424;53.128;6.406;2024-02-14T12:53:41;3.10;;;2.63;;
66597;SDS011;57424;53.128;6.406;2024-02-14T12:56:07;8.10;;;3.25;;
66597;SDS011;57424;53.128;6.406;2024-02-14T12:58:33;3.97;;;3.25;;
66597;SDS011;57424;53.128;6.406;2024-02-14T13:01:02;4.13;;;3.05;;
66597;SDS011;57424;53.128;6.406;2024-02-14T13:03:31;3.97;;;3.40;;
66597;SDS011;57424;53.128;6.406;2024-02-14T13:05:58;5.95;;;3.28;;
66597;SDS011;57424;53.128;6.406;2024-02-14T13:08:24;3.50;;;2.92;;
66597;SDS011;57424;53.128;6.406;2024-02-14T13:10:49;3.45;;;2.95;;
66597;SDS011;57424;53.128;6.406;2024-02-14T13:13:15;5.10;;;3.08;;
66597;SDS011;57424;53.128;6.406;2024-02-14T13:15:40;3.97;;;3.10;;
66597;SDS011;57424;53.128;6.406;2024-02-14T13:18:08;5.55;;;3.80;;
66597;SDS011;57424;53.128;6.406;2024-02-14T13:20:33;5.05;;;3.25;;
66597;SDS011;57424;53.128;6.406;2024-02-14T13:23:02;6.35;;;3.38;;
66597;SDS011;57424;53.128;6.406;2024-02-14T13:25:28;3.95;;;2.90;;
66597;SDS011;57424;53.128;6.406;2024-02-14T13:27:54;5.72;;;3.25;;
66597;SDS011;57424;53.128;6.406;2024-02-14T13:30:20;4.30;;;3.20;;
66597;SDS011;57424;53.128;6.406;2024-02-14T13:32:46;5.13;;;3.30;;
66597;SDS011;57424;53.128;6.406;2024-02-14T13:35:12;4.30;;;3.38;;
66597;SDS011;57424;53.128;6.406;2024-02-14T13:37:38;4.28;;;3.33;;
66597;SDS011;57424;53.128;6.406;2024-02-14T13:40:05;4.78;;;3.42;;
66597;SDS011;57424;53.128;6.406;2024-02-14T13:42:36;4.07;;;3.42;;
66597;SDS011;57424;53.128;6.406;2024-02-14T13:45:03;4.80;;;3.25;;
66597;SDS011;57424;53.128;6.406;2024-02-14T13:47:30;4.35;;;3.60;;
66597;SDS011;57424;53.128;6.406;2024-02-14T13:49:56;5.30;;;4.80;;
66597;SDS011;57424;53.128;6.406;2024-02-14T13:52:22;4.75;;;3.70;;
66597;SDS011;57424;53.128;6.406;2024-02-14T13:54:47;6.00;;;3.90;;
66597;SDS011;57424;53.128;6.406;2024-02-14T13:57:13;4.78;;;3.88;;
66597;SDS011;57424;53.128;6.406;2024-02-14T13:59:38;5.28;;;4.15;;
66597;SDS011;57424;53.128;6.406;2024-02-14T14:02:07;5.00;;;4.15;;
66597;SDS011;57424;53.128;6.406;2024-02-14T14:04:34;4.38;;;3.85;;
66597;SDS011;57424;53.128;6.406;2024-02-14T14:07:00;5.20;;;4.22;;
66597;SDS011;57424;53.128;6.406;2024-02-14T14:09:29;4.22;;;3.83;;
66597;SDS011;57424;53.128;6.406;2024-02-14T14:14:23;4.40;;;3.92;;
66597;SDS011;57424;53.128;6.406;2024-02-14T14:16:51;4.50;;;4.10;;
66597;SDS011;57424;53.128;6.406;2024-02-14T14:19:17;4.38;;;3.97;;
66597;SDS011;57424;53.128;6.406;2024-02-14T14:21:43;4.32;;;3.58;;
66597;SDS011;57424;53.128;6.406;2024-02-14T14:24:09;4.45;;;4.03;;
66597;SDS011;57424;53.128;6.406;2024-02-14T14:26:34;5.00;;;3.83;;
66597;SDS011;57424;53.128;6.406;2024-02-14T14:29:00;4.22;;;3.83;;
66597;SDS011;57424;53.128;6.406;2024-02-14T14:31:26;4.78;;;3.78;;
66597;SDS011;57424;53.128;6.406;2024-02-14T14:33:52;4.43;;;3.95;;
66597;SDS011;57424;53.128;6.406;2024-02-14T14:36:20;4.40;;;4.00;;
66597;SDS011;57424;53.128;6.406;2024-02-14T14:38:45;5.72;;;3.65;;
66597;SDS011;57424;53.128;6.406;2024-02-14T14:41:12;5.93;;;4.47;;
66597;SDS011;57424;53.128;6.406;2024-02-14T14:43:37;4.35;;;3.78;;
66597;SDS011;57424;53.128;6.406;2024-02-14T14:46:04;4.50;;;3.80;;
66597;SDS011;57424;53.128;6.406;2024-02-14T14:48:30;7.60;;;4.13;;
66597;SDS011;57424;53.128;6.406;2024-02-14T14:50:55;4.10;;;3.70;;